sensor_id;sensor_type;location;lat;lon;timestamp;pressure;altitude;pressure_sealevel;temperature
54306;BMP280;50434;45.188;5.712;2022-07-06T00:00:27;99760.88;;;23.64
54306;BMP280;50434;45.188;5.712;2022-07-06T00:02:53;99762.34;;;23.65
54306;BMP280;50434;45.188;5.712;2022-07-06T00:05:18;99759.81;;;23.69
54306;BMP280;50434;45.188;5.712;2022-07-06T00:07:44;99765.13;;;23.65
54306;BMP280;50434;45.188;5.712;2022-07-06T00:10:09;99763.41;;;23.60
54306;BMP280;50434;45.188;5.712;2022-07-06T00:12:35;99764.72;;;23.59
54306;BMP280;50434;45.188;5.712;2022-07-06T00:15:00;99768.59;;;23.54
54306;BMP280;50434;45.188;5.712;2022-07-06T00:17:26;99771.38;;;23.54
54306;BMP280;50434;45.188;5.712;2022-07-06T00:19:51;99773.19;;;23.49
54306;BMP280;50434;45.188;5.712;2022-07-06T00:22:17;99764.78;;;23.38
54306;BMP280;50434;45.188;5.712;2022-07-06T00:24:42;99765.50;;;23.38
54306;BMP280;50434;45.188;5.712;2022-07-06T00:27:08;99753.59;;;23.26
54306;BMP280;50434;45.188;5.712;2022-07-06T00:29:33;99755.00;;;23.16
54306;BMP280;50434;45.188;5.712;2022-07-06T00:31:59;99754.19;;;23.25
54306;BMP280;50434;45.188;5.712;2022-07-06T00:34:24;99758.72;;;23.30
54306;BMP280;50434;45.188;5.712;2022-07-06T00:36:50;99750.22;;;23.28
54306;BMP280;50434;45.188;5.712;2022-07-06T00:39:15;99749.25;;;23.23
54306;BMP280;50434;45.188;5.712;2022-07-06T00:41:42;99758.06;;;23.20
54306;BMP280;50434;45.188;5.712;2022-07-06T00:44:08;99760.09;;;23.19
54306;BMP280;50434;45.188;5.712;2022-07-06T00:46:35;99758.84;;;23.11
54306;BMP280;50434;45.188;5.712;2022-07-06T00:49:00;99767.66;;;23.07
54306;BMP280;50434;45.188;5.712;2022-07-06T00:51:32;99758.16;;;23.01
54306;BMP280;50434;45.188;5.712;2022-07-06T00:54:03;99752.97;;;22.95
54306;BMP280;50434;45.188;5.712;2022-07-06T00:56:30;99759.84;;;22.94
54306;BMP280;50434;45.188;5.712;2022-07-06T00:58:57;99754.44;;;22.96
54306;BMP280;50434;45.188;5.712;2022-07-06T01:01:22;99765.75;;;22.89
54306;BMP280;50434;45.188;5.712;2022-07-06T01:03:48;99762.63;;;22.94
54306;BMP280;50434;45.188;5.712;2022-07-06T01:06:13;99762.03;;;22.96
54306;BMP280;50434;45.188;5.712;2022-07-06T01:08:39;99766.13;;;22.95
54306;BMP280;50434;45.188;5.712;2022-07-06T01:11:04;99761.16;;;22.93
54306;BMP280;50434;45.188;5.712;2022-07-06T01:13:32;99769.97;;;22.90
54306;BMP280;50434;45.188;5.712;2022-07-06T01:15:59;99771.88;;;22.87
54306;BMP280;50434;45.188;5.712;2022-07-06T01:18:24;99768.25;;;22.85
54306;BMP280;50434;45.188;5.712;2022-07-06T01:20:50;99769.31;;;22.80
54306;BMP280;50434;45.188;5.712;2022-07-06T01:23:15;99782.34;;;22.77
54306;BMP280;50434;45.188;5.712;2022-07-06T01:25:41;99774.72;;;22.78
54306;BMP280;50434;45.188;5.712;2022-07-06T01:28:06;99771.81;;;22.76
54306;BMP280;50434;45.188;5.712;2022-07-06T01:30:32;99774.59;;;22.76
54306;BMP280;50434;45.188;5.712;2022-07-06T01:32:58;99772.56;;;22.76
54306;BMP280;50434;45.188;5.712;2022-07-06T01:35:24;99777.50;;;22.78
54306;BMP280;50434;45.188;5.712;2022-07-06T01:37:49;99769.63;;;22.74
54306;BMP280;50434;45.188;5.712;2022-07-06T01:40:15;99765.66;;;22.77
54306;BMP280;50434;45.188;5.712;2022-07-06T01:42:40;99767.44;;;22.73
54306;BMP280;50434;45.188;5.712;2022-07-06T01:45:07;99767.34;;;22.61
54306;BMP280;50434;45.188;5.712;2022-07-06T01:47:33;99763.25;;;22.62
54306;BMP280;50434;45.188;5.712;2022-07-06T01:50:00;99759.22;;;22.53
54306;BMP280;50434;45.188;5.712;2022-07-06T01:52:26;99765.22;;;22.50
54306;BMP280;50434;45.188;5.712;2022-07-06T01:54:52;99768.00;;;22.50
54306;BMP280;50434;45.188;5.712;2022-07-06T01:57:17;99753.09;;;22.45
54306;BMP280;50434;45.188;5.712;2022-07-06T01:59:42;99763.47;;;22.45
54306;BMP280;50434;45.188;5.712;2022-07-06T02:02:08;99770.50;;;22.46
54306;BMP280;50434;45.188;5.712;2022-07-06T02:04:33;99766.41;;;22.37
54306;BMP280;50434;45.188;5.712;2022-07-06T02:06:59;99773.16;;;22.34
54306;BMP280;50434;45.188;5.712;2022-07-06T02:09:24;99772.88;;;22.30
54306;BMP280;50434;45.188;5.712;2022-07-06T02:11:50;99770.72;;;22.29
54306;BMP280;50434;45.188;5.712;2022-07-06T02:14:15;99771.72;;;22.33
54306;BMP280;50434;45.188;5.712;2022-07-06T02:16:40;99762.22;;;22.36
54306;BMP280;50434;45.188;5.712;2022-07-06T02:19:06;99766.03;;;22.31
54306;BMP280;50434;45.188;5.712;2022-07-06T02:21:32;99777.13;;;22.31
54306;BMP280;50434;45.188;5.712;2022-07-06T02:23:57;99777.59;;;22.28
54306;BMP280;50434;45.188;5.712;2022-07-06T02:26:23;99783.03;;;22.16
54306;BMP280;50434;45.188;5.712;2022-07-06T02:28:48;99775.63;;;22.09
54306;BMP280;50434;45.188;5.712;2022-07-06T02:31:14;99778.09;;;22.05
54306;BMP280;50434;45.188;5.712;2022-07-06T02:33:40;99780.88;;;21.96
54306;BMP280;50434;45.188;5.712;2022-07-06T02:36:06;99784.25;;;21.94
54306;BMP280;50434;45.188;5.712;2022-07-06T02:38:31;99786.00;;;21.99
54306;BMP280;50434;45.188;5.712;2022-07-06T02:40:57;99781.03;;;21.98
54306;BMP280;50434;45.188;5.712;2022-07-06T02:43:22;99776.06;;;21.96
54306;BMP280;50434;45.188;5.712;2022-07-06T02:45:48;99773.44;;;21.98
54306;BMP280;50434;45.188;5.712;2022-07-06T02:48:13;99777.81;;;22.01
54306;BMP280;50434;45.188;5.712;2022-07-06T02:50:39;99779.69;;;22.08
54306;BMP280;50434;45.188;5.712;2022-07-06T02:53:04;99793.72;;;22.10
54306;BMP280;50434;45.188;5.712;2022-07-06T02:55:30;99787.56;;;22.12
54306;BMP280;50434;45.188;5.712;2022-07-06T02:57:55;99806.56;;;22.15
54306;BMP280;50434;45.188;5.712;2022-07-06T03:00:20;99802.31;;;22.14
54306;BMP280;50434;45.188;5.712;2022-07-06T03:02:46;99806.47;;;22.13
54306;BMP280;50434;45.188;5.712;2022-07-06T03:05:11;99800.91;;;22.13
54306;BMP280;50434;45.188;5.712;2022-07-06T03:07:37;99801.03;;;22.15
54306;BMP280;50434;45.188;5.712;2022-07-06T03:10:03;99807.63;;;22.10
54306;BMP280;50434;45.188;5.712;2022-07-06T03:12:28;99798.16;;;21.94
54306;BMP280;50434;45.188;5.712;2022-07-06T03:14:54;99804.84;;;21.91
54306;BMP280;50434;45.188;5.712;2022-07-06T03:17:19;99804.00;;;21.89
54306;BMP280;50434;45.188;5.712;2022-07-06T03:19:46;99804.72;;;21.89
54306;BMP280;50434;45.188;5.712;2022-07-06T03:22:12;99805.72;;;21.94
54306;BMP280;50434;45.188;5.712;2022-07-06T03:24:38;99812.78;;;21.85
54306;BMP280;50434;45.188;5.712;2022-07-06T03:27:03;99812.34;;;21.79
54306;BMP280;50434;45.188;5.712;2022-07-06T03:29:29;99811.91;;;21.73
54306;BMP280;50434;45.188;5.712;2022-07-06T03:31:55;99807.50;;;21.80
54306;BMP280;50434;45.188;5.712;2022-07-06T03:34:20;99819.31;;;21.80
54306;BMP280;50434;45.188;5.712;2022-07-06T03:36:45;99820.69;;;21.79
54306;BMP280;50434;45.188;5.712;2022-07-06T03:39:11;99822.09;;;21.80
54306;BMP280;50434;45.188;5.712;2022-07-06T03:41:37;99825.50;;;21.79
54306;BMP280;50434;45.188;5.712;2022-07-06T03:44:03;99820.25;;;21.73
54306;BMP280;50434;45.188;5.712;2022-07-06T03:46:28;99820.38;;;21.66
54306;BMP280;50434;45.188;5.712;2022-07-06T03:48:55;99826.19;;;21.60
54306;BMP280;50434;45.188;5.712;2022-07-06T03:51:22;99827.09;;;21.63
54306;BMP280;50434;45.188;5.712;2022-07-06T03:53:47;99821.84;;;21.67
54306;BMP280;50434;45.188;5.712;2022-07-06T03:56:13;99823.56;;;21.72
54306;BMP280;50434;45.188;5.712;2022-07-06T03:58:57;99829.44;;;21.66
54306;BMP280;50434;45.188;5.712;2022-07-06T04:01:24;99827.09;;;21.63
54306;BMP280;50434;45.188;5.712;2022-07-06T04:03:50;99821.13;;;21.66
54306;BMP280;50434;45.188;5.712;2022-07-06T04:06:15;99826.22;;;21.70
54306;BMP280;50434;45.188;5.712;2022-07-06T04:08:41;99826.66;;;21.66
54306;BMP280;50434;45.188;5.712;2022-07-06T04:11:06;99827.53;;;21.59
54306;BMP280;50434;45.188;5.712;2022-07-06T04:13:32;99828.38;;;21.52
54306;BMP280;50434;45.188;5.712;2022-07-06T04:15:58;99830.47;;;21.52
54306;BMP280;50434;45.188;5.712;2022-07-06T04:18:24;99828.97;;;21.41
54306;BMP280;50434;45.188;5.712;2022-07-06T04:20:49;99827.06;;;21.34
54306;BMP280;50434;45.188;5.712;2022-07-06T04:23:15;99827.50;;;21.30
54306;BMP280;50434;45.188;5.712;2022-07-06T04:25:41;99832.19;;;21.28
54306;BMP280;50434;45.188;5.712;2022-07-06T04:28:06;99825.75;;;21.25
54306;BMP280;50434;45.188;5.712;2022-07-06T04:30:32;99833.31;;;21.25
54306;BMP280;50434;45.188;5.712;2022-07-06T04:32:58;99817.72;;;21.20
54306;BMP280;50434;45.188;5.712;2022-07-06T04:35:23;99826.03;;;21.29
54306;BMP280;50434;45.188;5.712;2022-07-06T04:37:48;99821.78;;;21.28
54306;BMP280;50434;45.188;5.712;2022-07-06T04:40:14;99826.94;;;21.32
54306;BMP280;50434;45.188;5.712;2022-07-06T04:42:40;99835.53;;;21.26
54306;BMP280;50434;45.188;5.712;2022-07-06T04:45:06;99828.63;;;21.18
54306;BMP280;50434;45.188;5.712;2022-07-06T04:47:32;99835.66;;;21.19
54306;BMP280;50434;45.188;5.712;2022-07-06T04:49:57;99829.94;;;21.17
54306;BMP280;50434;45.188;5.712;2022-07-06T04:52:23;99827.16;;;21.17
54306;BMP280;50434;45.188;5.712;2022-07-06T04:54:48;99819.28;;;21.13
54306;BMP280;50434;45.188;5.712;2022-07-06T04:57:14;99815.63;;;21.11
54306;BMP280;50434;45.188;5.712;2022-07-06T04:59:39;99822.78;;;21.14
54306;BMP280;50434;45.188;5.712;2022-07-06T05:02:05;99822.66;;;21.12
54306;BMP280;50434;45.188;5.712;2022-07-06T05:04:30;99824.09;;;21.13
54306;BMP280;50434;45.188;5.712;2022-07-06T05:06:55;99820.59;;;21.12
54306;BMP280;50434;45.188;5.712;2022-07-06T05:09:21;99830.25;;;21.11
54306;BMP280;50434;45.188;5.712;2022-07-06T05:11:47;99818.25;;;21.09
54306;BMP280;50434;45.188;5.712;2022-07-06T05:14:12;99823.66;;;21.07
54306;BMP280;50434;45.188;5.712;2022-07-06T05:16:38;99825.22;;;21.00
54306;BMP280;50434;45.188;5.712;2022-07-06T05:19:03;99818.25;;;20.99
54306;BMP280;50434;45.188;5.712;2022-07-06T05:21:29;99826.84;;;21.03
54306;BMP280;50434;45.188;5.712;2022-07-06T05:23:54;99824.22;;;21.05
54306;BMP280;50434;45.188;5.712;2022-07-06T05:26:20;99822.63;;;21.02
54306;BMP280;50434;45.188;5.712;2022-07-06T05:28:45;99815.28;;;20.97
54306;BMP280;50434;45.188;5.712;2022-07-06T05:31:11;99810.59;;;20.90
54306;BMP280;50434;45.188;5.712;2022-07-06T05:33:36;99825.66;;;20.97
54306;BMP280;50434;45.188;5.712;2022-07-06T05:36:02;99816.03;;;20.98
54306;BMP280;50434;45.188;5.712;2022-07-06T05:38:28;99815.75;;;21.03
54306;BMP280;50434;45.188;5.712;2022-07-06T05:40:53;99806.84;;;21.05
54306;BMP280;50434;45.188;5.712;2022-07-06T05:43:19;99812.72;;;21.09
54306;BMP280;50434;45.188;5.712;2022-07-06T05:45:44;99806.16;;;21.14
54306;BMP280;50434;45.188;5.712;2022-07-06T05:48:10;99813.00;;;21.13
54306;BMP280;50434;45.188;5.712;2022-07-06T05:50:54;99822.66;;;21.21
54306;BMP280;50434;45.188;5.712;2022-07-06T05:53:19;99817.84;;;21.22
54306;BMP280;50434;45.188;5.712;2022-07-06T05:55:46;99811.56;;;21.21
54306;BMP280;50434;45.188;5.712;2022-07-06T05:58:12;99821.19;;;21.30
54306;BMP280;50434;45.188;5.712;2022-07-06T06:00:37;99818.59;;;21.41
54306;BMP280;50434;45.188;5.712;2022-07-06T06:03:03;99830.75;;;21.46
54306;BMP280;50434;45.188;5.712;2022-07-06T06:05:28;99832.06;;;21.35
54306;BMP280;50434;45.188;5.712;2022-07-06T06:07:54;99834.38;;;21.29
54306;BMP280;50434;45.188;5.712;2022-07-06T06:10:20;99839.47;;;21.33
54306;BMP280;50434;45.188;5.712;2022-07-06T06:12:49;99846.19;;;21.30
54306;BMP280;50434;45.188;5.712;2022-07-06T06:15:15;99841.78;;;21.27
54306;BMP280;50434;45.188;5.712;2022-07-06T06:17:41;99845.19;;;21.35
54306;BMP280;50434;45.188;5.712;2022-07-06T06:20:09;99849.72;;;21.40
54306;BMP280;50434;45.188;5.712;2022-07-06T06:22:51;99858.19;;;21.42
54306;BMP280;50434;45.188;5.712;2022-07-06T06:25:19;99866.06;;;21.45
54306;BMP280;50434;45.188;5.712;2022-07-06T06:27:46;99882.88;;;21.47
54306;BMP280;50434;45.188;5.712;2022-07-06T06:30:12;99875.72;;;21.54
54306;BMP280;50434;45.188;5.712;2022-07-06T06:32:38;99874.84;;;21.61
54306;BMP280;50434;45.188;5.712;2022-07-06T06:35:05;99888.00;;;21.61
54306;BMP280;50434;45.188;5.712;2022-07-06T06:37:31;99886.25;;;21.65
54306;BMP280;50434;45.188;5.712;2022-07-06T06:39:57;99887.88;;;21.68
54306;BMP280;50434;45.188;5.712;2022-07-06T06:42:22;99880.88;;;21.77
54306;BMP280;50434;45.188;5.712;2022-07-06T06:44:48;99885.97;;;21.80
54306;BMP280;50434;45.188;5.712;2022-07-06T06:47:13;99887.31;;;21.89
54306;BMP280;50434;45.188;5.712;2022-07-06T06:49:39;99894.91;;;21.98
54306;BMP280;50434;45.188;5.712;2022-07-06T06:52:05;99896.81;;;22.05
54306;BMP280;50434;45.188;5.712;2022-07-06T06:54:30;99895.78;;;22.10
54306;BMP280;50434;45.188;5.712;2022-07-06T06:56:55;99884.69;;;22.10
54306;BMP280;50434;45.188;5.712;2022-07-06T06:59:21;99874.72;;;22.16
54306;BMP280;50434;45.188;5.712;2022-07-06T07:01:47;99882.63;;;22.20
54306;BMP280;50434;45.188;5.712;2022-07-06T07:04:13;99879.84;;;22.20
54306;BMP280;50434;45.188;5.712;2022-07-06T07:06:39;99890.22;;;22.19
54306;BMP280;50434;45.188;5.712;2022-07-06T07:09:04;99890.34;;;22.21
54306;BMP280;50434;45.188;5.712;2022-07-06T07:11:30;99883.19;;;22.28
54306;BMP280;50434;45.188;5.712;2022-07-06T07:13:56;99877.91;;;22.32
54306;BMP280;50434;45.188;5.712;2022-07-06T07:16:22;99877.31;;;22.33
54306;BMP280;50434;45.188;5.712;2022-07-06T07:18:50;99874.81;;;22.37
54306;BMP280;50434;45.188;5.712;2022-07-06T07:21:15;99881.53;;;22.44
54306;BMP280;50434;45.188;5.712;2022-07-06T07:23:42;99882.41;;;22.46
54306;BMP280;50434;45.188;5.712;2022-07-06T07:26:07;99886.19;;;22.51
54306;BMP280;50434;45.188;5.712;2022-07-06T07:28:33;99887.94;;;22.56
54306;BMP280;50434;45.188;5.712;2022-07-06T07:30:59;99889.22;;;22.65
54306;BMP280;50434;45.188;5.712;2022-07-06T07:33:24;99885.28;;;22.58
54306;BMP280;50434;45.188;5.712;2022-07-06T07:35:50;99882.97;;;22.54
54306;BMP280;50434;45.188;5.712;2022-07-06T07:38:15;99881.22;;;22.59
54306;BMP280;50434;45.188;5.712;2022-07-06T07:40:41;99881.72;;;22.67
54306;BMP280;50434;45.188;5.712;2022-07-06T07:43:06;99874.69;;;22.76
54306;BMP280;50434;45.188;5.712;2022-07-06T07:45:32;99884.50;;;22.77
54306;BMP280;50434;45.188;5.712;2022-07-06T07:47:57;99873.78;;;22.83
54306;BMP280;50434;45.188;5.712;2022-07-06T07:50:23;99874.50;;;22.93
54306;BMP280;50434;45.188;5.712;2022-07-06T07:52:51;99880.56;;;23.01
54306;BMP280;50434;45.188;5.712;2022-07-06T07:55:17;99874.53;;;23.04
54306;BMP280;50434;45.188;5.712;2022-07-06T07:57:42;99857.84;;;23.04
54306;BMP280;50434;45.188;5.712;2022-07-06T08:00:08;99855.75;;;23.14
54306;BMP280;50434;45.188;5.712;2022-07-06T08:02:34;99866.56;;;23.20
54306;BMP280;50434;45.188;5.712;2022-07-06T08:04:59;99861.69;;;23.30
54306;BMP280;50434;45.188;5.712;2022-07-06T08:07:25;99858.00;;;23.37
54306;BMP280;50434;45.188;5.712;2022-07-06T08:09:50;99848.16;;;23.36
54306;BMP280;50434;45.188;5.712;2022-07-06T08:12:16;99842.25;;;23.41
54306;BMP280;50434;45.188;5.712;2022-07-06T08:14:41;99849.81;;;23.50
54306;BMP280;50434;45.188;5.712;2022-07-06T08:17:07;99848.41;;;23.61
54306;BMP280;50434;45.188;5.712;2022-07-06T08:19:32;99845.53;;;23.70
54306;BMP280;50434;45.188;5.712;2022-07-06T08:21:58;99838.31;;;23.77
54306;BMP280;50434;45.188;5.712;2022-07-06T08:24:24;99834.91;;;23.79
54306;BMP280;50434;45.188;5.712;2022-07-06T08:26:49;99844.38;;;23.85
54306;BMP280;50434;45.188;5.712;2022-07-06T08:29:15;99837.59;;;23.88
54306;BMP280;50434;45.188;5.712;2022-07-06T08:31:40;99840.06;;;23.94
54306;BMP280;50434;45.188;5.712;2022-07-06T08:34:06;99835.34;;;23.96
54306;BMP280;50434;45.188;5.712;2022-07-06T08:36:32;99831.34;;;23.99
54306;BMP280;50434;45.188;5.712;2022-07-06T08:38:58;99827.59;;;24.06
54306;BMP280;50434;45.188;5.712;2022-07-06T08:41:25;99824.34;;;24.10
54306;BMP280;50434;45.188;5.712;2022-07-06T08:43:53;99823.88;;;24.13
54306;BMP280;50434;45.188;5.712;2022-07-06T08:46:20;99802.66;;;24.20
54306;BMP280;50434;45.188;5.712;2022-07-06T08:48:47;99814.19;;;24.26
54306;BMP280;50434;45.188;5.712;2022-07-06T08:51:13;99804.72;;;24.31
54306;BMP280;50434;45.188;5.712;2022-07-06T08:53:41;99809.81;;;24.34
54306;BMP280;50434;45.188;5.712;2022-07-06T08:56:07;99803.03;;;24.37
54306;BMP280;50434;45.188;5.712;2022-07-06T08:58:33;99803.91;;;24.40
54306;BMP280;50434;45.188;5.712;2022-07-06T09:00:59;99806.66;;;24.51
54306;BMP280;50434;45.188;5.712;2022-07-06T09:03:25;99807.25;;;24.61
54306;BMP280;50434;45.188;5.712;2022-07-06T09:05:52;99818.66;;;24.65
54306;BMP280;50434;45.188;5.712;2022-07-06T09:08:18;99799.41;;;24.69
54306;BMP280;50434;45.188;5.712;2022-07-06T09:10:44;99811.75;;;24.78
54306;BMP280;50434;45.188;5.712;2022-07-06T09:13:09;99805.91;;;24.85
54306;BMP280;50434;45.188;5.712;2022-07-06T09:15:36;99801.31;;;24.90
54306;BMP280;50434;45.188;5.712;2022-07-06T09:18:04;99812.44;;;25.02
54306;BMP280;50434;45.188;5.712;2022-07-06T09:20:31;99804.41;;;25.08
54306;BMP280;50434;45.188;5.712;2022-07-06T09:23:05;99805.34;;;25.12
54306;BMP280;50434;45.188;5.712;2022-07-06T09:25:34;99808.03;;;25.22
54306;BMP280;50434;45.188;5.712;2022-07-06T09:28:01;99812.81;;;25.33
54306;BMP280;50434;45.188;5.712;2022-07-06T09:30:28;99802.22;;;25.43
54306;BMP280;50434;45.188;5.712;2022-07-06T09:32:55;99815.19;;;25.50
54306;BMP280;50434;45.188;5.712;2022-07-06T09:35:26;99798.44;;;25.50
54306;BMP280;50434;45.188;5.712;2022-07-06T09:38:03;99804.47;;;25.58
54306;BMP280;50434;45.188;5.712;2022-07-06T09:40:38;99805.19;;;25.58
54306;BMP280;50434;45.188;5.712;2022-07-06T09:43:11;99795.06;;;25.65
54306;BMP280;50434;45.188;5.712;2022-07-06T09:45:39;99786.31;;;25.70
54306;BMP280;50434;45.188;5.712;2022-07-06T09:48:08;99799.97;;;25.78
54306;BMP280;50434;45.188;5.712;2022-07-06T09:50:39;99792.88;;;25.88
54306;BMP280;50434;45.188;5.712;2022-07-06T09:53:06;99799.63;;;25.97
54306;BMP280;50434;45.188;5.712;2022-07-06T09:55:31;99797.88;;;26.03
54306;BMP280;50434;45.188;5.712;2022-07-06T09:57:56;99789.81;;;26.09
54306;BMP280;50434;45.188;5.712;2022-07-06T10:00:22;99794.25;;;26.14
54306;BMP280;50434;45.188;5.712;2022-07-06T10:02:48;99786.06;;;26.18
54306;BMP280;50434;45.188;5.712;2022-07-06T10:05:16;99797.47;;;26.22
54306;BMP280;50434;45.188;5.712;2022-07-06T10:07:46;99790.94;;;26.18
54306;BMP280;50434;45.188;5.712;2022-07-06T10:10:15;99787.25;;;26.27
54306;BMP280;50434;45.188;5.712;2022-07-06T10:12:44;99780.78;;;26.38
54306;BMP280;50434;45.188;5.712;2022-07-06T10:15:11;99781.53;;;26.39
54306;BMP280;50434;45.188;5.712;2022-07-06T10:17:38;99784.56;;;26.43
54306;BMP280;50434;45.188;5.712;2022-07-06T10:20:05;99774.59;;;26.53
54306;BMP280;50434;45.188;5.712;2022-07-06T10:22:32;99775.94;;;26.66
54306;BMP280;50434;45.188;5.712;2022-07-06T10:25:02;99777.25;;;26.78
54306;BMP280;50434;45.188;5.712;2022-07-06T10:27:28;99769.88;;;26.85
54306;BMP280;50434;45.188;5.712;2022-07-06T10:29:54;99779.28;;;26.91
54306;BMP280;50434;45.188;5.712;2022-07-06T10:32:20;99776.28;;;27.01
54306;BMP280;50434;45.188;5.712;2022-07-06T10:34:47;99770.97;;;27.07
54306;BMP280;50434;45.188;5.712;2022-07-06T10:37:24;99773.34;;;27.12
54306;BMP280;50434;45.188;5.712;2022-07-06T10:39:51;99783.91;;;27.14
54306;BMP280;50434;45.188;5.712;2022-07-06T10:42:41;99778.44;;;27.02
54306;BMP280;50434;45.188;5.712;2022-07-06T10:45:08;99785.59;;;27.05
54306;BMP280;50434;45.188;5.712;2022-07-06T10:47:35;99767.81;;;27.14
54306;BMP280;50434;45.188;5.712;2022-07-06T10:50:02;99790.63;;;27.22
54306;BMP280;50434;45.188;5.712;2022-07-06T10:57:57;99782.69;;;27.32
54306;BMP280;50434;45.188;5.712;2022-07-06T11:00:23;99777.88;;;27.35
54306;BMP280;50434;45.188;5.712;2022-07-06T11:02:48;99777.72;;;27.31
54306;BMP280;50434;45.188;5.712;2022-07-06T11:05:43;99777.72;;;27.31
54306;BMP280;50434;45.188;5.712;2022-07-06T11:08:09;99770.19;;;27.20
54306;BMP280;50434;45.188;5.712;2022-07-06T11:10:48;99774.63;;;27.25
54306;BMP280;50434;45.188;5.712;2022-07-06T11:13:29;99766.59;;;27.33
54306;BMP280;50434;45.188;5.712;2022-07-06T11:16:01;99764.88;;;27.26
54306;BMP280;50434;45.188;5.712;2022-07-06T11:18:28;99747.63;;;27.31
54306;BMP280;50434;45.188;5.712;2022-07-06T11:21:23;99744.41;;;27.37
54306;BMP280;50434;45.188;5.712;2022-07-06T11:23:56;99746.81;;;27.44
54306;BMP280;50434;45.188;5.712;2022-07-06T11:26:22;99741.34;;;27.62
54306;BMP280;50434;45.188;5.712;2022-07-06T11:28:48;99739.34;;;27.64
54306;BMP280;50434;45.188;5.712;2022-07-06T11:31:14;99739.28;;;27.62
54306;BMP280;50434;45.188;5.712;2022-07-06T11:33:40;99735.53;;;27.58
54306;BMP280;50434;45.188;5.712;2022-07-06T11:36:12;99746.06;;;27.57
54306;BMP280;50434;45.188;5.712;2022-07-06T11:38:38;99739.88;;;27.61
54306;BMP280;50434;45.188;5.712;2022-07-06T11:41:04;99736.66;;;27.66
54306;BMP280;50434;45.188;5.712;2022-07-06T11:43:29;99731.31;;;27.73
54306;BMP280;50434;45.188;5.712;2022-07-06T11:45:54;99728.34;;;27.68
54306;BMP280;50434;45.188;5.712;2022-07-06T11:48:20;99741.25;;;27.76
54306;BMP280;50434;45.188;5.712;2022-07-06T11:51:05;99738.44;;;27.76
54306;BMP280;50434;45.188;5.712;2022-07-06T11:53:31;99738.81;;;27.68
54306;BMP280;50434;45.188;5.712;2022-07-06T11:56:02;99729.78;;;27.69
54306;BMP280;50434;45.188;5.712;2022-07-06T11:58:30;99710.41;;;27.76
54306;BMP280;50434;45.188;5.712;2022-07-06T12:03:29;99724.88;;;27.86
54306;BMP280;50434;45.188;5.712;2022-07-06T12:05:54;99721.81;;;27.80
54306;BMP280;50434;45.188;5.712;2022-07-06T12:08:20;99719.47;;;27.90
54306;BMP280;50434;45.188;5.712;2022-07-06T12:10:45;99704.72;;;27.89
54306;BMP280;50434;45.188;5.712;2022-07-06T12:13:11;99701.19;;;27.89
54306;BMP280;50434;45.188;5.712;2022-07-06T12:15:36;99698.19;;;28.00
54306;BMP280;50434;45.188;5.712;2022-07-06T12:18:02;99681.28;;;27.98
54306;BMP280;50434;45.188;5.712;2022-07-06T12:20:27;99694.56;;;27.98
54306;BMP280;50434;45.188;5.712;2022-07-06T12:23:05;99692.84;;;28.06
54306;BMP280;50434;45.188;5.712;2022-07-06T12:25:35;99692.19;;;28.08
54306;BMP280;50434;45.188;5.712;2022-07-06T12:28:02;99683.78;;;28.08
54306;BMP280;50434;45.188;5.712;2022-07-06T12:30:28;99683.25;;;28.11
54306;BMP280;50434;45.188;5.712;2022-07-06T12:33:12;99680.34;;;28.09
54306;BMP280;50434;45.188;5.712;2022-07-06T12:35:38;99677.78;;;28.15
54306;BMP280;50434;45.188;5.712;2022-07-06T12:38:05;99673.25;;;28.24
54306;BMP280;50434;45.188;5.712;2022-07-06T12:40:30;99672.31;;;28.17
54306;BMP280;50434;45.188;5.712;2022-07-06T12:42:58;99680.84;;;28.21
54306;BMP280;50434;45.188;5.712;2022-07-06T12:45:27;99665.78;;;28.13
54306;BMP280;50434;45.188;5.712;2022-07-06T12:47:58;99682.41;;;28.24
54306;BMP280;50434;45.188;5.712;2022-07-06T12:50:35;99673.59;;;28.32
54306;BMP280;50434;45.188;5.712;2022-07-06T12:53:02;99667.72;;;28.26
54306;BMP280;50434;45.188;5.712;2022-07-06T12:55:29;99667.34;;;28.33
54306;BMP280;50434;45.188;5.712;2022-07-06T12:57:56;99652.50;;;28.31
54306;BMP280;50434;45.188;5.712;2022-07-06T13:00:22;99652.09;;;28.21
54306;BMP280;50434;45.188;5.712;2022-07-06T13:02:50;99657.53;;;28.17
54306;BMP280;50434;45.188;5.712;2022-07-06T13:05:24;99659.47;;;28.30
54306;BMP280;50434;45.188;5.712;2022-07-06T13:07:54;99660.44;;;28.36
54306;BMP280;50434;45.188;5.712;2022-07-06T13:10:21;99644.00;;;28.29
54306;BMP280;50434;45.188;5.712;2022-07-06T13:12:47;99642.41;;;28.41
54306;BMP280;50434;45.188;5.712;2022-07-06T13:15:13;99646.72;;;28.44
54306;BMP280;50434;45.188;5.712;2022-07-06T13:17:38;99640.81;;;28.36
54306;BMP280;50434;45.188;5.712;2022-07-06T13:20:05;99650.19;;;28.43
54306;BMP280;50434;45.188;5.712;2022-07-06T13:22:31;99645.59;;;28.51
54306;BMP280;50434;45.188;5.712;2022-07-06T13:24:56;99630.78;;;28.49
54306;BMP280;50434;45.188;5.712;2022-07-06T13:27:22;99636.59;;;28.53
54306;BMP280;50434;45.188;5.712;2022-07-06T13:29:47;99643.72;;;28.56
54306;BMP280;50434;45.188;5.712;2022-07-06T13:32:13;99631.66;;;28.53
54306;BMP280;50434;45.188;5.712;2022-07-06T13:34:39;99637.88;;;28.50
54306;BMP280;50434;45.188;5.712;2022-07-06T13:37:05;99632.25;;;28.50
54306;BMP280;50434;45.188;5.712;2022-07-06T13:39:32;99626.88;;;28.56
54306;BMP280;50434;45.188;5.712;2022-07-06T13:41:58;99635.63;;;28.64
54306;BMP280;50434;45.188;5.712;2022-07-06T13:44:23;99629.28;;;28.63
54306;BMP280;50434;45.188;5.712;2022-07-06T13:46:49;99630.63;;;28.62
54306;BMP280;50434;45.188;5.712;2022-07-06T13:49:16;99635.22;;;28.54
54306;BMP280;50434;45.188;5.712;2022-07-06T13:51:42;99628.41;;;28.59
54306;BMP280;50434;45.188;5.712;2022-07-06T13:54:08;99632.72;;;28.62
54306;BMP280;50434;45.188;5.712;2022-07-06T13:56:34;99628.31;;;28.57
54306;BMP280;50434;45.188;5.712;2022-07-06T13:58:59;99635.06;;;28.50
54306;BMP280;50434;45.188;5.712;2022-07-06T14:01:25;99622.53;;;28.53
54306;BMP280;50434;45.188;5.712;2022-07-06T14:03:51;99632.72;;;28.62
54306;BMP280;50434;45.188;5.712;2022-07-06T14:06:18;99634.09;;;28.61
54306;BMP280;50434;45.188;5.712;2022-07-06T14:08:44;99631.13;;;28.57
54306;BMP280;50434;45.188;5.712;2022-07-06T14:11:09;99644.81;;;28.66
54306;BMP280;50434;45.188;5.712;2022-07-06T14:13:36;99634.09;;;28.61